createdAt,value
2017-06-28T00:00:00.745Z,18.98
2017-06-28T00:01:00.425Z,19.01
2017-06-28T00:02:01.065Z,18.99
2017-06-28T00:03:01.039Z,18.84
2017-06-28T00:04:01.021Z,18.79
2017-06-28T00:05:00.383Z,18.91
2017-06-28T00:06:00.690Z,18.86
2017-06-28T00:07:00.988Z,18.8
2017-06-28T00:08:00.667Z,18.9
2017-06-28T00:09:00.973Z,18.83
2017-06-28T00:10:00.979Z,18.83
2017-06-28T00:11:00.952Z,18.83
2017-06-28T00:12:00.632Z,18.8
2017-06-28T00:13:00.941Z,18.79
2017-06-28T00:14:00.360Z,18.79
2017-06-28T00:15:00.919Z,18.82
2017-06-28T00:16:00.909Z,18.72
2017-06-28T00:17:00.898Z,18.77
2017-06-28T00:18:00.890Z,18.77
2017-06-28T00:19:00.618Z,18.76
2017-06-28T00:20:00.872Z,18.77
2017-06-28T00:21:00.549Z,18.7
2017-06-28T00:22:00.851Z,18.64
2017-06-28T00:23:00.838Z,18.62
2017-06-28T00:24:00.837Z,18.67
2017-06-28T00:25:00.878Z,18.65
2017-06-28T00:26:00.552Z,18.61
2017-06-28T00:27:00.179Z,18.65
2017-06-28T00:28:00.487Z,18.65
2017-06-28T00:29:00.781Z,18.57
2017-06-28T00:30:00.776Z,18.7
2017-06-28T00:31:00.764Z,18.68
2017-06-28T00:32:00.448Z,18.57
2017-06-28T00:33:00.440Z,18.68
2017-06-28T00:34:00.112Z,18.61
2017-06-28T00:35:00.727Z,18.61
2017-06-28T00:36:00.090Z,18.57
2017-06-28T00:37:00.397Z,18.54
2017-06-28T00:38:00.393Z,18.54
2017-06-28T00:39:00.695Z,18.55
2017-06-28T00:40:00.686Z,18.52
2017-06-28T00:41:00.083Z,18.54
2017-06-28T00:42:00.350Z,18.44
2017-06-28T00:43:00.340Z,18.43
2017-06-28T00:44:00.336Z,18.54
2017-06-28T00:45:00.636Z,18.5
2017-06-28T00:46:00.310Z,18.5
2017-06-28T00:47:00.298Z,18.47
2017-06-28T00:48:00.296Z,18.39
2017-06-28T00:48:59.969Z,18.44
2017-06-28T00:50:00.591Z,18.49
2017-06-28T00:50:59.950Z,18.44
2017-06-28T00:52:00.571Z,18.43
2017-06-28T00:53:00.566Z,18.36
2017-06-28T00:54:00.548Z,18.46
2017-06-28T00:55:00.276Z,18.43
2017-06-28T00:56:00.214Z,18.46
2017-06-28T00:57:00.206Z,18.4
2017-06-28T00:58:00.563Z,18.36
2017-06-28T00:59:00.553Z,18.39
2017-06-28T01:00:00.179Z,18.36
2017-06-28T01:01:00.475Z,18.4
2017-06-28T01:02:00.154Z,18.24
2017-06-28T01:03:00.463Z,18.37
2017-06-28T01:04:00.135Z,18.36
2017-06-28T01:05:00.129Z,18.25
2017-06-28T01:06:00.435Z,18.31
2017-06-28T01:07:00.106Z,18.31
2017-06-28T01:08:00.101Z,18.34
2017-06-28T01:09:00.087Z,18.31
2017-06-28T01:10:00.086Z,18.27
2017-06-28T01:11:00.067Z,18.31
2017-06-28T01:12:00.065Z,18.25
2017-06-28T01:13:00.047Z,18.31
2017-06-28T01:14:00.353Z,18.36
2017-06-28T01:15:00.031Z,18.31
2017-06-28T01:15:59.712Z,18.27
2017-06-28T01:17:00.012Z,18.24
2017-06-28T01:17:59.999Z,18.33
2017-06-28T01:19:00.306Z,18.27
2017-06-28T01:19:59.979Z,18.24
2017-06-28T01:20:59.974Z,18.22
2017-06-28T01:22:00.274Z,18.21
2017-06-28T01:23:00.264Z,18.27
2017-06-28T01:24:00.021Z,18.22
2017-06-28T01:24:59.936Z,18.19
2017-06-28T01:25:59.924Z,18.29
2017-06-28T01:26:59.919Z,18.28
2017-06-28T01:28:00.219Z,18.22
2017-06-28T01:29:00.205Z,18.25
2017-06-28T01:29:59.887Z,18.28
2017-06-28T01:30:59.561Z,18.24
2017-06-28T01:31:59.554Z,18.28
2017-06-28T01:32:59.855Z,18.27
2017-06-28T01:33:59.873Z,18.33
2017-06-28T01:35:00.147Z,18.31
2017-06-28T01:35:59.830Z,18.25
2017-06-28T01:36:59.815Z,18.28
2017-06-28T01:37:59.815Z,18.34
2017-06-28T01:38:59.797Z,18.36
2017-06-28T01:39:59.785Z,18.34
2017-06-28T01:40:59.777Z,18.27
2017-06-28T01:41:59.764Z,18.27
2017-06-28T01:43:00.275Z,18.34
2017-06-28T01:44:00.061Z,18.31
2017-06-28T01:45:00.051Z,18.24
2017-06-28T01:46:00.039Z,18.29
2017-06-28T01:46:59.720Z,18.27
2017-06-28T01:47:59.720Z,18.34
2017-06-28T01:48:59.701Z,18.31
2017-06-28T01:50:00.004Z,18.25
2017-06-28T01:50:59.993Z,18.29
2017-06-28T01:51:59.672Z,18.27
2017-06-28T01:52:59.970Z,18.39
2017-06-28T01:53:59.965Z,18.28
2017-06-28T01:54:59.332Z,18.28
2017-06-28T01:55:59.944Z,18.28
2017-06-28T01:56:59.932Z,18.25
2017-06-28T01:57:59.926Z,18.27
2017-06-28T01:58:59.594Z,18.33
2017-06-28T01:59:59.910Z,18.24
2017-06-28T02:00:59.579Z,18.27
2017-06-28T02:01:59.570Z,18.22
2017-06-28T02:02:59.562Z,18.28
2017-06-28T02:03:59.550Z,18.27
2017-06-28T02:04:59.854Z,18.21
2017-06-28T02:05:59.844Z,18.22
2017-06-28T02:06:59.836Z,18.33
2017-06-28T02:07:59.197Z,18.27
2017-06-28T02:08:59.502Z,18.28
2017-06-28T02:09:59.178Z,18.31
2017-06-28T02:10:59.794Z,18.28
2017-06-28T02:11:59.468Z,18.29
2017-06-28T02:12:59.460Z,18.28
2017-06-28T02:13:59.140Z,18.33
2017-06-28T02:14:59.443Z,18.31
2017-06-28T02:15:59.433Z,18.33
2017-06-28T02:16:59.735Z,18.34
2017-06-28T02:17:59.730Z,18.36
2017-06-28T02:18:59.095Z,18.29
2017-06-28T02:19:59.399Z,18.37
2017-06-28T02:20:59.699Z,18.37
2017-06-28T02:21:59.373Z,18.31
2017-06-28T02:22:59.672Z,18.37
2017-06-28T02:23:59.356Z,18.36
2017-06-28T02:24:59.658Z,18.37
2017-06-28T02:25:59.670Z,18.33
2017-06-28T02:26:59.016Z,18.39
2017-06-28T02:27:59.626Z,18.37
2017-06-28T02:28:59.618Z,18.39
2017-06-28T02:29:59.296Z,18.39
2017-06-28T02:30:59.596Z,18.37
2017-06-28T02:31:59.591Z,18.39
2017-06-28T02:32:59.586Z,18.42
2017-06-28T02:33:59.574Z,18.4
2017-06-28T02:34:59.259Z,18.49
2017-06-28T02:35:59.598Z,18.47
2017-06-28T02:36:59.543Z,18.43
2017-06-28T02:37:59.528Z,18.47
2017-06-28T02:38:59.204Z,18.49
2017-06-28T02:39:58.888Z,18.55
2017-06-28T02:40:59.503Z,18.52
2017-06-28T02:41:58.867Z,18.52
2017-06-28T02:42:58.854Z,18.57
2017-06-28T02:43:59.471Z,18.52
2017-06-28T02:44:59.500Z,18.58
2017-06-28T02:45:59.145Z,18.61
2017-06-28T02:46:59.127Z,18.59
2017-06-28T02:47:58.803Z,18.5
2017-06-28T02:48:59.432Z,18.68
2017-06-28T02:49:59.419Z,18.54
2017-06-28T02:50:59.146Z,18.65
2017-06-28T02:51:59.393Z,18.52
2017-06-28T02:52:59.079Z,18.59
2017-06-28T02:53:58.752Z,18.55
2017-06-28T02:54:59.074Z,18.62
2017-06-28T02:55:59.357Z,18.55
2017-06-28T02:56:59.033Z,18.58
2017-06-28T02:57:59.022Z,18.55
2017-06-28T02:58:59.012Z,18.54
2017-06-28T02:59:59.318Z,18.58
2017-06-28T03:00:59.306Z,18.64
2017-06-28T03:01:59.307Z,18.7
2017-06-28T03:02:59.286Z,18.55
2017-06-28T03:03:58.964Z,18.74
2017-06-28T03:04:58.961Z,18.65
2017-06-28T03:05:59.257Z,18.64
2017-06-28T03:06:58.937Z,18.64
2017-06-28T03:07:59.238Z,18.67
2017-06-28T03:08:58.915Z,18.67
2017-06-28T03:09:59.224Z,18.67
2017-06-28T03:10:58.902Z,18.64
2017-06-28T03:11:58.884Z,18.68
2017-06-28T03:12:58.875Z,18.64
2017-06-28T03:13:58.869Z,18.64
2017-06-28T03:14:58.863Z,18.73
2017-06-28T03:15:58.539Z,18.76
2017-06-28T03:16:59.156Z,18.76
2017-06-28T03:17:59.151Z,18.73
2017-06-28T03:18:59.139Z,18.79
2017-06-28T03:19:58.808Z,18.82
2017-06-28T03:20:59.112Z,18.73
2017-06-28T03:21:59.100Z,18.8
2017-06-28T03:22:59.099Z,18.86
2017-06-28T03:23:58.457Z,18.8
2017-06-28T03:24:59.070Z,18.82
2017-06-28T03:25:58.442Z,18.79
2017-06-28T03:26:58.744Z,18.83
2017-06-28T03:27:58.754Z,18.83
2017-06-28T03:28:59.042Z,18.8
2017-06-28T03:29:58.721Z,18.8
2017-06-28T03:30:59.014Z,18.82
2017-06-28T03:31:58.384Z,18.84
2017-06-28T03:32:59.001Z,18.87
2017-06-28T03:33:58.998Z,18.9
2017-06-28T03:34:58.680Z,18.83
2017-06-28T03:35:58.970Z,18.9
2017-06-28T03:36:58.646Z,18.83
2017-06-28T03:37:58.989Z,18.95
2017-06-28T03:38:58.625Z,18.92
2017-06-28T03:39:58.930Z,18.95
2017-06-28T03:40:58.614Z,18.86
2017-06-28T03:41:58.604Z,18.84
2017-06-28T03:42:58.800Z,18.95
2017-06-28T03:43:58.586Z,18.97
2017-06-28T03:44:58.888Z,18.95
2017-06-28T03:45:58.876Z,18.98
2017-06-28T03:46:58.240Z,18.94
2017-06-28T03:47:58.543Z,18.83
2017-06-28T03:48:58.537Z,18.94
2017-06-28T03:49:58.841Z,18.98
2017-06-28T03:50:58.518Z,18.83
2017-06-28T03:51:58.822Z,18.86
2017-06-28T03:52:58.496Z,18.94
2017-06-28T03:53:58.489Z,18.94
2017-06-28T03:54:58.798Z,18.86
2017-06-28T03:55:58.785Z,18.91
2017-06-28T03:56:58.461Z,18.94
2017-06-28T03:57:58.453Z,18.95
2017-06-28T03:58:58.450Z,18.94
2017-06-28T03:59:58.430Z,18.94
2017-06-28T04:00:58.111Z,19.06
2017-06-28T04:01:58.731Z,18.99
2017-06-28T04:02:58.407Z,18.98
2017-06-28T04:03:58.090Z,18.98
2017-06-28T04:04:58.432Z,18.99
2017-06-28T04:05:58.375Z,19.01
2017-06-28T04:06:58.052Z,19.01
2017-06-28T04:07:58.043Z,19.02
2017-06-28T04:08:58.039Z,19.08
2017-06-28T04:09:58.340Z,19.1
2017-06-28T04:10:58.381Z,19.14
2017-06-28T04:11:58.317Z,19.23
2017-06-28T04:12:58.314Z,19.18
2017-06-28T04:13:58.623Z,19.23
2017-06-28T04:14:58.301Z,19.18
2017-06-28T04:15:58.333Z,19.21
2017-06-28T04:16:57.961Z,19.21
2017-06-28T04:17:58.271Z,19.28
2017-06-28T04:18:58.256Z,19.32
2017-06-28T04:19:57.936Z,19.32
2017-06-28T04:20:57.926Z,19.28
2017-06-28T04:21:58.539Z,19.35
2017-06-28T04:22:58.217Z,19.32
2017-06-28T04:23:58.222Z,19.31
2017-06-28T04:24:58.206Z,19.36
2017-06-28T04:25:57.893Z,19.35
2017-06-28T04:26:58.517Z,19.4
2017-06-28T04:27:58.230Z,19.38
2017-06-28T04:28:58.487Z,19.36
2017-06-28T04:29:58.475Z,19.36
2017-06-28T04:30:58.464Z,19.42
2017-06-28T04:31:58.456Z,19.38
2017-06-28T04:32:58.450Z,19.42
2017-06-28T04:33:58.121Z,19.42
2017-06-28T04:34:58.115Z,19.43
2017-06-28T04:35:58.423Z,19.48
2017-06-28T04:36:58.098Z,19.53
2017-06-28T04:37:58.094Z,19.58
2017-06-28T04:38:57.772Z,19.54
2017-06-28T04:39:58.386Z,19.58
2017-06-28T04:40:58.375Z,19.51
2017-06-28T04:41:58.388Z,19.6
2017-06-28T04:42:58.046Z,19.63
2017-06-28T04:43:58.034Z,19.65
2017-06-28T04:44:58.342Z,19.66
2017-06-28T04:45:58.028Z,19.7
2017-06-28T04:46:58.325Z,19.61
2017-06-28T04:47:58.007Z,19.73
2017-06-28T04:48:58.307Z,19.65
2017-06-28T04:49:57.983Z,19.72
2017-06-28T04:50:58.289Z,19.6
2017-06-28T04:51:58.280Z,19.68
2017-06-28T04:52:57.961Z,19.66
2017-06-28T04:53:57.951Z,19.68
2017-06-28T04:54:57.941Z,19.63
2017-06-28T04:55:58.245Z,19.63
2017-06-28T04:56:57.932Z,19.72
2017-06-28T04:57:57.918Z,19.7
2017-06-28T04:58:57.944Z,19.63
2017-06-28T04:59:57.912Z,19.61
2017-06-28T05:00:58.203Z,19.73
2017-06-28T05:01:57.881Z,19.69
2017-06-28T05:02:57.870Z,19.65
2017-06-28T05:03:58.172Z,19.68
2017-06-28T05:04:58.167Z,19.66
2017-06-28T05:05:57.848Z,19.68
2017-06-28T05:06:57.841Z,19.69
2017-06-28T05:07:57.515Z,19.55
2017-06-28T05:08:57.865Z,19.61
2017-06-28T05:09:57.820Z,19.65
2017-06-28T05:10:57.501Z,19.65
2017-06-28T05:11:57.798Z,19.65
2017-06-28T05:12:57.788Z,19.68
2017-06-28T05:13:57.783Z,19.68
2017-06-28T05:14:57.768Z,19.68
2017-06-28T05:15:57.765Z,19.69
2017-06-28T05:16:57.753Z,19.66
2017-06-28T05:17:58.052Z,19.6
2017-06-28T05:18:58.048Z,19.54
2017-06-28T05:19:57.729Z,19.65
2017-06-28T05:20:58.028Z,19.55
2017-06-28T05:21:57.709Z,19.55
2017-06-28T05:22:58.010Z,19.57
2017-06-28T05:23:57.699Z,19.58
2017-06-28T05:24:57.683Z,19.57
2017-06-28T05:25:57.676Z,19.57
2017-06-28T05:26:57.672Z,19.57
2017-06-28T05:27:57.977Z,19.51
2017-06-28T05:28:57.959Z,19.61
2017-06-28T05:29:57.959Z,19.55
2017-06-28T05:30:57.937Z,19.61
2017-06-28T05:31:57.934Z,19.54
2017-06-28T05:32:57.930Z,19.57
2017-06-28T05:33:57.292Z,19.61
2017-06-28T05:34:57.601Z,19.68
2017-06-28T05:35:57.591Z,19.66
2017-06-28T05:36:57.891Z,19.68
2017-06-28T05:37:57.575Z,19.65
2017-06-28T05:38:57.564Z,19.68
2017-06-28T05:39:57.246Z,19.73
2017-06-28T05:40:57.539Z,19.78
2017-06-28T05:41:57.850Z,19.76
2017-06-28T05:42:57.727Z,19.8
2017-06-28T05:43:57.515Z,19.78
2017-06-28T05:44:57.511Z,19.83
2017-06-28T05:45:57.815Z,19.87
2017-06-28T05:46:57.799Z,19.88
2017-06-28T05:47:57.799Z,19.86
2017-06-28T05:48:57.161Z,20
2017-06-28T05:49:57.773Z,20
2017-06-28T05:50:57.454Z,20.02
2017-06-28T05:51:57.444Z,19.97
2017-06-28T05:52:57.762Z,20.03
2017-06-28T05:53:57.120Z,20.09
2017-06-28T05:54:57.114Z,20.03
2017-06-28T05:55:57.729Z,20.1
2017-06-28T05:56:57.091Z,20.09
2017-06-28T05:57:57.708Z,20.1
2017-06-28T05:58:57.702Z,20.05
2017-06-28T05:59:57.379Z,20
2017-06-28T06:00:57.376Z,20
2017-06-28T06:01:57.362Z,20.08
2017-06-28T06:02:57.047Z,20.08
2017-06-28T06:03:57.662Z,20.09
2017-06-28T06:04:57.346Z,20.16
2017-06-28T06:05:57.646Z,20.16
2017-06-28T06:06:57.008Z,20.1
2017-06-28T06:07:57.323Z,20.13
2017-06-28T06:08:57.631Z,20.28
2017-06-28T06:09:57.304Z,20.24
2017-06-28T06:10:56.977Z,20.23
2017-06-28T06:11:57.284Z,20.25
2017-06-28T06:12:57.273Z,20.27
2017-06-28T06:13:56.955Z,20.31
2017-06-28T06:14:57.262Z,20.42
2017-06-28T06:15:57.254Z,20.42
2017-06-28T06:16:57.250Z,20.39
2017-06-28T06:17:57.250Z,20.39
2017-06-28T06:18:57.545Z,20.39
2017-06-28T06:19:57.223Z,20.41
2017-06-28T06:20:57.209Z,20.42
2017-06-28T06:21:57.204Z,20.43
2017-06-28T06:22:57.296Z,20.43
2017-06-28T06:23:57.198Z,20.49
2017-06-28T06:24:57.186Z,20.46
2017-06-28T06:25:57.484Z,20.43
2017-06-28T06:26:56.851Z,20.42
2017-06-28T06:27:57.153Z,20.49
2017-06-28T06:28:57.153Z,20.49
2017-06-28T06:29:57.141Z,20.47
2017-06-28T06:30:57.142Z,20.58
2017-06-28T06:31:57.133Z,20.51
2017-06-28T06:32:57.487Z,20.5
2017-06-28T06:33:57.423Z,20.61
2017-06-28T06:34:57.423Z,20.61
2017-06-28T06:35:57.099Z,20.56
2017-06-28T06:36:57.430Z,20.61
2017-06-28T06:37:57.085Z,20.58
2017-06-28T06:38:57.382Z,20.58
2017-06-28T06:39:56.744Z,20.5
2017-06-28T06:40:57.056Z,20.61
2017-06-28T06:41:57.364Z,20.54
2017-06-28T06:42:57.051Z,20.56
2017-06-28T06:43:57.353Z,20.51
2017-06-28T06:44:56.711Z,20.54
2017-06-28T06:45:57.328Z,20.53
2017-06-28T06:46:57.022Z,20.53
2017-06-28T06:47:57.320Z,20.64
2017-06-28T06:48:56.997Z,20.58
2017-06-28T06:49:57.303Z,20.74
2017-06-28T06:50:56.982Z,20.71
2017-06-28T06:51:57.285Z,20.71
2017-06-28T06:52:57.300Z,20.84
2017-06-28T06:53:56.956Z,20.91
2017-06-28T06:54:56.952Z,20.95
2017-06-28T06:55:56.944Z,21.04
2017-06-28T06:56:56.933Z,21.09
2017-06-28T06:57:57.239Z,21.26
2017-06-28T06:58:56.922Z,21.21
2017-06-28T06:59:56.910Z,21.27
2017-06-28T07:00:56.908Z,21.53
2017-06-28T07:01:56.587Z,21.6
2017-06-28T07:02:56.889Z,21.66
2017-06-28T07:03:56.879Z,21.69
2017-06-28T07:04:57.187Z,21.74
2017-06-28T07:05:57.189Z,21.85
2017-06-28T07:06:56.863Z,21.92
2017-06-28T07:07:57.165Z,21.94
2017-06-28T07:08:56.845Z,21.88
2017-06-28T07:09:56.835Z,22.02
2017-06-28T07:10:56.830Z,22.01
2017-06-28T07:11:56.509Z,22.01
2017-06-28T07:12:57.136Z,22.22
2017-06-28T07:13:57.131Z,22.23
2017-06-28T07:14:56.493Z,22.28
2017-06-28T07:15:57.115Z,22.34
2017-06-28T07:16:57.108Z,22.35
2017-06-28T07:17:56.790Z,22.35
2017-06-28T07:18:56.784Z,22.34
2017-06-28T07:19:56.469Z,22.39
2017-06-28T07:20:57.083Z,22.47
2017-06-28T07:21:57.075Z,22.53
2017-06-28T07:22:57.067Z,22.54
2017-06-28T07:23:57.065Z,22.56
2017-06-28T07:24:57.059Z,22.62
2017-06-28T07:25:56.734Z,22.57
2017-06-28T07:26:56.755Z,22.56
2017-06-28T07:27:56.732Z,22.62
2017-06-28T07:28:56.729Z,22.64
2017-06-28T07:29:57.029Z,22.71
2017-06-28T07:30:57.023Z,22.77
2017-06-28T07:31:56.708Z,22.84
2017-06-28T07:32:56.392Z,22.86
2017-06-28T07:33:57.008Z,22.83
2017-06-28T07:34:57.000Z,22.92
2017-06-28T07:35:56.990Z,22.9
2017-06-28T07:36:56.988Z,22.92
2017-06-28T07:37:56.673Z,22.89
2017-06-28T07:38:56.672Z,22.97
2017-06-28T07:39:56.973Z,22.97
2017-06-28T07:40:56.649Z,23.04
2017-06-28T07:41:56.331Z,23.07
2017-06-28T07:42:57.044Z,23.08
2017-06-28T07:43:56.949Z,23.04
2017-06-28T07:44:56.630Z,23.07
2017-06-28T07:45:56.644Z,23.07
2017-06-28T07:46:56.300Z,23.02
2017-06-28T07:47:56.615Z,23.07
2017-06-28T07:48:56.915Z,23.11
2017-06-28T07:49:56.914Z,23.11
2017-06-28T07:50:56.914Z,23.04
2017-06-28T07:51:56.589Z,23.01
2017-06-28T07:52:56.899Z,23.05
2017-06-28T07:53:56.892Z,23.07
2017-06-28T07:54:56.259Z,23.08
2017-06-28T07:55:56.567Z,23.02
2017-06-28T07:56:56.560Z,22.97
2017-06-28T07:57:56.871Z,23.01
2017-06-28T07:58:56.863Z,22.96
2017-06-28T07:59:56.234Z,23.01
2017-06-28T08:00:56.539Z,22.97
2017-06-28T08:01:56.846Z,23.01
2017-06-28T08:02:56.521Z,22.97
2017-06-28T08:03:56.837Z,22.9
2017-06-28T08:04:56.830Z,22.89
2017-06-28T08:05:56.195Z,22.92
2017-06-28T08:06:56.815Z,22.9
2017-06-28T08:07:56.501Z,22.92
2017-06-28T08:08:56.491Z,22.89
2017-06-28T08:09:56.478Z,22.87
2017-06-28T08:10:56.479Z,22.86
2017-06-28T08:11:56.472Z,22.82
2017-06-28T08:12:56.479Z,22.87
2017-06-28T08:13:56.510Z,22.97
2017-06-28T08:14:56.772Z,22.92
2017-06-28T08:15:56.761Z,22.9
2017-06-28T08:16:56.761Z,22.97
2017-06-28T08:17:56.759Z,22.94
2017-06-28T08:18:56.436Z,22.92
2017-06-28T08:19:56.429Z,22.86
2017-06-28T08:20:56.421Z,22.92
2017-06-28T08:21:56.101Z,22.94
2017-06-28T08:22:56.404Z,22.96
2017-06-28T08:23:56.711Z,23.04
2017-06-28T08:24:56.707Z,23.07
2017-06-28T08:25:56.078Z,23.15
2017-06-28T08:26:56.703Z,23.19
2017-06-28T08:27:56.404Z,23.29
2017-06-28T08:28:56.688Z,23.23
2017-06-28T08:29:56.694Z,23.34
2017-06-28T08:30:56.679Z,23.38
2017-06-28T08:31:56.360Z,23.27
2017-06-28T08:32:56.689Z,23.27
2017-06-28T08:33:56.346Z,23.38
2017-06-28T08:34:56.348Z,23.43
2017-06-28T08:35:56.022Z,23.4
2017-06-28T08:36:56.651Z,23.55
2017-06-28T08:37:56.326Z,23.58
2017-06-28T08:38:56.631Z,23.68
2017-06-28T08:39:56.317Z,23.68
2017-06-28T08:40:56.308Z,23.77
2017-06-28T08:41:56.304Z,23.94
2017-06-28T08:42:56.610Z,23.95
2017-06-28T08:43:56.606Z,24.04
2017-06-28T08:44:56.610Z,23.94
2017-06-28T08:45:56.290Z,24.13
2017-06-28T08:46:56.321Z,24.17
2017-06-28T08:47:56.273Z,24.34
2017-06-28T08:48:56.583Z,24.37
2017-06-28T08:49:56.579Z,24.41
2017-06-28T08:50:56.570Z,24.44
2017-06-28T08:51:56.566Z,24.44
2017-06-28T08:52:56.259Z,24.44
2017-06-28T08:53:56.563Z,24.67
2017-06-28T08:54:55.929Z,25.02
2017-06-28T08:55:56.238Z,25.2
2017-06-28T08:56:56.550Z,25.28
2017-06-28T08:57:56.229Z,25.16
2017-06-28T08:58:56.229Z,25.3
2017-06-28T08:59:56.222Z,25.34
2017-06-28T09:00:56.527Z,25.32
2017-06-28T09:01:56.218Z,25.13
2017-06-28T09:02:55.898Z,25.07
2017-06-28T09:03:56.517Z,25.05
2017-06-28T09:04:55.886Z,25.01
2017-06-28T09:05:56.195Z,25.01
2017-06-28T09:06:56.504Z,25
2017-06-28T09:07:56.189Z,25.01
2017-06-28T09:08:56.504Z,25.01
2017-06-28T09:09:56.182Z,25.02
2017-06-28T09:10:56.488Z,24.82
2017-06-28T09:11:56.176Z,24.73
2017-06-28T09:12:56.486Z,24.59
2017-06-28T09:13:56.163Z,24.54
2017-06-28T09:14:56.163Z,24.47
2017-06-28T09:15:56.474Z,24.47
2017-06-28T09:16:55.841Z,24.49
2017-06-28T09:17:56.147Z,24.41
2017-06-28T09:18:56.458Z,24.24
2017-06-28T09:19:56.456Z,24.26
2017-06-28T09:20:56.450Z,24.31
2017-06-28T09:21:56.444Z,24.35
2017-06-28T09:22:56.138Z,24.39
2017-06-28T09:23:56.128Z,24.41
2017-06-28T09:24:56.438Z,24.38
2017-06-28T09:25:56.436Z,24.45
2017-06-28T09:26:55.806Z,24.47
2017-06-28T09:27:56.426Z,24.45
2017-06-28T09:28:56.121Z,24.44
2017-06-28T09:29:56.105Z,24.54
2017-06-28T09:30:56.101Z,24.6
2017-06-28T09:31:56.095Z,24.61
2017-06-28T09:32:56.409Z,24.68
2017-06-28T09:33:56.108Z,24.8
2017-06-28T09:34:56.086Z,24.75
2017-06-28T09:35:56.388Z,24.69
2017-06-28T09:36:56.386Z,24.67
2017-06-28T09:37:56.076Z,24.6
2017-06-28T09:38:56.379Z,24.57
2017-06-28T09:39:56.380Z,24.49
2017-06-28T09:40:55.747Z,24.37
2017-06-28T09:41:56.365Z,24.35
2017-06-28T09:42:55.736Z,24.42
2017-06-28T09:43:56.362Z,24.39
2017-06-28T09:44:55.731Z,24.34
2017-06-28T09:45:56.037Z,24.32
2017-06-28T09:46:56.032Z,24.27
2017-06-28T09:47:55.715Z,24.2
2017-06-28T09:48:56.337Z,24.16
2017-06-28T09:49:56.026Z,24.1
2017-06-28T09:50:55.702Z,24.04
2017-06-28T09:51:55.699Z,24.08
2017-06-28T09:52:56.009Z,24.12
2017-06-28T09:53:56.001Z,24.12
2017-06-28T09:54:55.998Z,24.17
2017-06-28T09:55:56.000Z,24.13
2017-06-28T09:56:56.317Z,24.1
2017-06-28T09:57:55.977Z,24.12
2017-06-28T09:58:55.974Z,24.13
2017-06-28T09:59:55.976Z,24.01
2017-06-28T10:00:56.282Z,24.01
2017-06-28T10:01:55.963Z,23.97
2017-06-28T10:02:55.963Z,23.94
2017-06-28T10:03:56.265Z,23.95
2017-06-28T10:04:55.943Z,23.92
2017-06-28T10:05:55.635Z,23.82
2017-06-28T10:06:56.251Z,23.83
2017-06-28T10:07:55.947Z,23.8
2017-06-28T10:08:55.925Z,23.77
2017-06-28T10:09:55.918Z,23.61
2017-06-28T10:10:55.600Z,23.5
2017-06-28T10:11:56.222Z,23.52
2017-06-28T10:12:55.906Z,23.57
2017-06-28T10:13:56.215Z,23.55
2017-06-28T10:14:55.889Z,23.58
2017-06-28T10:15:56.196Z,23.53
2017-06-28T10:16:56.192Z,23.57
2017-06-28T10:17:56.196Z,23.53
2017-06-28T10:18:55.873Z,23.57
2017-06-28T10:19:56.179Z,23.6
2017-06-28T10:20:55.857Z,23.58
2017-06-28T10:21:55.856Z,23.65
2017-06-28T10:22:55.529Z,23.68
2017-06-28T10:23:56.150Z,23.64
2017-06-28T10:24:55.830Z,23.58
2017-06-28T10:25:55.516Z,23.58
2017-06-28T10:26:55.533Z,23.53
2017-06-28T10:27:55.816Z,23.55
2017-06-28T10:28:55.506Z,23.47
2017-06-28T10:29:56.124Z,23.43
2017-06-28T10:30:55.798Z,23.45
2017-06-28T10:31:55.478Z,23.39
2017-06-28T10:32:55.485Z,23.32
2017-06-28T10:33:55.785Z,23.26
2017-06-28T10:34:55.486Z,23.42
2017-06-28T10:35:56.090Z,23.26
2017-06-28T10:36:56.075Z,23.2
2017-06-28T10:37:56.076Z,23.2
2017-06-28T10:38:55.445Z,23.2
2017-06-28T10:39:55.437Z,23.26
2017-06-28T10:40:56.052Z,23.26
2017-06-28T10:41:56.089Z,23.27
2017-06-28T10:42:56.040Z,23.24
2017-06-28T10:43:56.038Z,23.29
2017-06-28T10:44:55.717Z,23.27
2017-06-28T10:45:55.403Z,23.31
2017-06-28T10:46:55.391Z,23.31
2017-06-28T10:47:56.018Z,23.45
2017-06-28T10:48:55.689Z,23.38
2017-06-28T10:49:56.009Z,23.42
2017-06-28T10:50:55.998Z,23.38
2017-06-28T10:51:55.667Z,23.43
2017-06-28T10:52:55.987Z,23.4
2017-06-28T10:53:55.662Z,23.4
2017-06-28T10:54:55.968Z,23.47
2017-06-28T10:55:55.965Z,23.52
2017-06-28T10:56:55.958Z,23.55
2017-06-28T10:57:55.326Z,23.55
2017-06-28T10:58:55.637Z,23.49
2017-06-28T10:59:55.632Z,23.61
2017-06-28T11:00:55.931Z,23.58
2017-06-28T11:01:55.931Z,23.61
2017-06-28T11:02:55.298Z,23.58
2017-06-28T11:03:55.612Z,23.64
2017-06-28T11:04:55.915Z,23.52
2017-06-28T11:05:55.594Z,23.62
2017-06-28T11:06:55.279Z,23.6
2017-06-28T11:07:55.584Z,23.57
2017-06-28T11:08:55.578Z,23.7
2017-06-28T11:09:55.575Z,23.68
2017-06-28T11:10:55.896Z,23.7
2017-06-28T11:11:55.565Z,23.64
2017-06-28T11:12:55.563Z,23.76
2017-06-28T11:13:55.557Z,23.71
2017-06-28T11:14:55.546Z,23.79
2017-06-28T11:15:55.229Z,23.82
2017-06-28T11:16:55.591Z,23.87
2017-06-28T11:17:55.531Z,23.87
2017-06-28T11:18:55.524Z,23.87
2017-06-28T11:19:55.521Z,23.82
2017-06-28T11:20:55.826Z,23.94
2017-06-28T11:21:55.509Z,23.92
2017-06-28T11:22:55.814Z,23.9
2017-06-28T11:23:55.190Z,23.92
2017-06-28T11:24:55.178Z,23.82
2017-06-28T11:25:55.489Z,23.87
2017-06-28T11:26:55.483Z,23.95
2017-06-28T11:27:55.806Z,23.97
2017-06-28T11:28:55.479Z,23.92
2017-06-28T11:29:55.783Z,24.04
2017-06-28T11:30:55.777Z,23.98
2017-06-28T11:31:55.451Z,23.98
2017-06-28T11:32:55.765Z,23.94
2017-06-28T11:33:55.448Z,23.98
2017-06-28T11:34:55.125Z,24.05
2017-06-28T11:35:55.436Z,24.04
2017-06-28T11:36:55.438Z,24.07
2017-06-28T11:37:55.739Z,24.01
2017-06-28T11:38:55.423Z,24.04
2017-06-28T11:39:55.421Z,24.02
2017-06-28T11:40:55.728Z,24.01
2017-06-28T11:41:55.192Z,24.08
2017-06-28T11:42:55.404Z,23.95
2017-06-28T11:43:55.599Z,23.98
2017-06-28T11:44:55.079Z,23.92
2017-06-28T11:45:55.383Z,23.82
2017-06-28T11:46:55.379Z,23.83
2017-06-28T11:47:55.371Z,23.9
2017-06-28T11:48:55.367Z,23.83
2017-06-28T11:49:55.680Z,23.76
2017-06-28T11:50:55.678Z,23.72
2017-06-28T11:51:55.389Z,23.67
2017-06-28T11:52:55.696Z,23.7
2017-06-28T11:53:55.667Z,23.71
2017-06-28T11:54:55.033Z,23.5
2017-06-28T11:55:55.364Z,23.57
2017-06-28T11:56:55.647Z,23.55
2017-06-28T11:57:55.332Z,23.47
2017-06-28T11:58:55.635Z,23.45
2017-06-28T11:59:55.635Z,23.4
2017-06-28T12:00:55.622Z,23.39
2017-06-28T12:01:55.298Z,23.38
2017-06-28T12:02:55.297Z,23.4
2017-06-28T12:03:54.975Z,23.46
2017-06-28T12:04:54.971Z,23.46
2017-06-28T12:05:55.594Z,23.43
2017-06-28T12:06:55.588Z,23.42
2017-06-28T12:07:55.585Z,23.31
2017-06-28T12:08:54.982Z,23.32
2017-06-28T12:09:55.301Z,23.29
2017-06-28T12:10:55.247Z,23.23
2017-06-28T12:11:55.243Z,23.2
2017-06-28T12:12:54.929Z,23.2
2017-06-28T12:13:55.549Z,23.29
2017-06-28T12:14:55.222Z,23.27
2017-06-28T12:15:55.535Z,23.27
2017-06-28T12:16:54.904Z,23.2
2017-06-28T12:17:55.529Z,23.15
2017-06-28T12:18:54.894Z,23.08
2017-06-28T12:19:54.887Z,23.14
2017-06-28T12:20:55.512Z,23.14
2017-06-28T12:21:54.876Z,23.09
2017-06-28T12:22:55.499Z,23.07
2017-06-28T12:23:54.866Z,23.04
2017-06-28T12:24:54.859Z,23.07
2017-06-28T12:25:54.850Z,22.97
2017-06-28T12:26:55.161Z,22.97
2017-06-28T12:27:55.160Z,22.96
2017-06-28T12:28:55.463Z,22.96
2017-06-28T12:29:55.149Z,22.86
2017-06-28T12:30:55.449Z,22.92
2017-06-28T12:31:55.128Z,22.86
2017-06-28T12:32:55.443Z,22.82
2017-06-28T12:33:55.118Z,22.87
2017-06-28T12:34:54.802Z,22.94
2017-06-28T12:35:55.108Z,22.82
2017-06-28T12:36:55.416Z,22.82
2017-06-28T12:37:55.098Z,22.82
2017-06-28T12:38:55.406Z,22.83
2017-06-28T12:39:55.084Z,22.87
2017-06-28T12:40:54.764Z,22.83
2017-06-28T12:41:55.070Z,22.86
2017-06-28T12:42:54.753Z,22.83
2017-06-28T12:43:55.409Z,22.82
2017-06-28T12:44:55.054Z,22.84
2017-06-28T12:45:55.046Z,22.8
2017-06-28T12:46:55.351Z,22.71
2017-06-28T12:47:55.351Z,22.74
2017-06-28T12:48:54.716Z,22.75
2017-06-28T12:49:55.551Z,22.71
2017-06-28T12:50:55.361Z,22.57
2017-06-28T12:51:55.335Z,22.54
2017-06-28T12:52:55.013Z,22.59
2017-06-28T12:53:54.998Z,22.68
2017-06-28T12:54:54.991Z,22.6